sensor_id;sensor_type;location;lat;lon;timestamp;pressure;altitude;pressure_sealevel;temperature;humidity
22181;BME280;11256;50.830;12.834;2022-09-23T00:02:12;98107.50;;;9.82;55.68
22181;BME280;11256;50.830;12.834;2022-09-23T00:07:12;98096.13;;;9.75;55.94
22181;BME280;11256;50.830;12.834;2022-09-23T00:12:13;98096.88;;;9.65;56.18
22181;BME280;11256;50.830;12.834;2022-09-23T00:17:13;98095.78;;;9.56;56.06
22181;BME280;11256;50.830;12.834;2022-09-23T00:22:14;98090.34;;;9.51;55.97
22181;BME280;11256;50.830;12.834;2022-09-23T00:27:14;98087.31;;;9.43;56.32
22181;BME280;11256;50.830;12.834;2022-09-23T00:32:15;98093.78;;;9.42;56.25
22181;BME280;11256;50.830;12.834;2022-09-23T00:37:15;98079.69;;;9.35;56.17
22181;BME280;11256;50.830;12.834;2022-09-23T00:42:19;98086.97;;;9.29;56.35
22181;BME280;11256;50.830;12.834;2022-09-23T00:52:29;98082.31;;;9.20;56.53
22181;BME280;11256;50.830;12.834;2022-09-23T00:57:31;98087.41;;;9.16;56.40
22181;BME280;11256;50.830;12.834;2022-09-23T01:02:33;98071.13;;;9.06;56.50
22181;BME280;11256;50.830;12.834;2022-09-23T01:07:33;98073.03;;;9.06;56.70
22181;BME280;11256;50.830;12.834;2022-09-23T01:12:55;98070.84;;;9.03;56.83
22181;BME280;11256;50.830;12.834;2022-09-23T01:23:36;98065.91;;;8.90;57.06
22181;BME280;11256;50.830;12.834;2022-09-23T01:29:08;98061.53;;;8.84;57.23
22181;BME280;11256;50.830;12.834;2022-09-23T01:34:46;98051.16;;;8.71;56.91
22181;BME280;11256;50.830;12.834;2022-09-23T01:40:08;97995.81;;;8.37;56.81
22181;BME280;11256;50.830;12.834;2022-09-23T01:45:32;97996.34;;;8.34;56.90
22181;BME280;11256;50.830;12.834;2022-09-23T01:50:45;97973.72;;;8.13;56.83
22181;BME280;11256;50.830;12.834;2022-09-23T01:56:17;98034.53;;;8.47;57.49
22181;BME280;11256;50.830;12.834;2022-09-23T02:07:01;97984.75;;;8.07;57.33
22181;BME280;11256;50.830;12.834;2022-09-23T02:12:13;97975.97;;;7.90;57.38
22181;BME280;11256;50.830;12.834;2022-09-23T02:17:39;97978.69;;;7.90;57.35
22181;BME280;11256;50.830;12.834;2022-09-23T02:23:11;97955.34;;;7.74;57.26
22181;BME280;11256;50.830;12.834;2022-09-23T02:28:19;97966.13;;;7.74;57.55
22181;BME280;11256;50.830;12.834;2022-09-23T02:33:40;97968.97;;;7.62;57.53
22181;BME280;11256;50.830;12.834;2022-09-23T02:38:57;97980.09;;;7.71;57.53
22181;BME280;11256;50.830;12.834;2022-09-23T02:44:08;97968.06;;;7.57;58.02
22181;BME280;11256;50.830;12.834;2022-09-23T02:49:27;97970.22;;;7.55;57.88
22181;BME280;11256;50.830;12.834;2022-09-23T02:54:34;97969.63;;;7.48;57.69
22181;BME280;11256;50.830;12.834;2022-09-23T02:59:42;97967.47;;;7.50;57.82
22181;BME280;11256;50.830;12.834;2022-09-23T03:20:35;97953.81;;;7.35;58.06
22181;BME280;11256;50.830;12.834;2022-09-23T03:25:51;97925.06;;;7.14;58.19
22181;BME280;11256;50.830;12.834;2022-09-23T03:31:24;97929.31;;;7.10;58.18
22181;BME280;11256;50.830;12.834;2022-09-23T03:36:33;97936.25;;;7.06;58.32
22181;BME280;11256;50.830;12.834;2022-09-23T03:41:57;97943.78;;;7.04;58.44
22181;BME280;11256;50.830;12.834;2022-09-23T03:47:00;97954.09;;;7.12;58.79
22181;BME280;11256;50.830;12.834;2022-09-23T03:52:01;97947.50;;;6.98;58.79
22181;BME280;11256;50.830;12.834;2022-09-23T03:57:02;97959.72;;;7.05;58.49
22181;BME280;11256;50.830;12.834;2022-09-23T04:02:03;97950.72;;;7.00;59.17
22181;BME280;11256;50.830;12.834;2022-09-23T04:07:04;97946.84;;;6.91;59.00
22181;BME280;11256;50.830;12.834;2022-09-23T04:12:05;97942.53;;;6.90;59.33
22181;BME280;11256;50.830;12.834;2022-09-23T04:17:06;97943.59;;;6.89;59.44
22181;BME280;11256;50.830;12.834;2022-09-23T04:22:07;97934.38;;;6.85;59.47
22181;BME280;11256;50.830;12.834;2022-09-23T04:27:08;97925.19;;;6.81;59.31
22181;BME280;11256;50.830;12.834;2022-09-23T04:32:08;97939.69;;;6.80;59.13
22181;BME280;11256;50.830;12.834;2022-09-23T04:37:09;97933.22;;;6.76;59.93
22181;BME280;11256;50.830;12.834;2022-09-23T04:42:09;97936.44;;;6.78;59.48
22181;BME280;11256;50.830;12.834;2022-09-23T04:47:10;97940.69;;;6.74;60.06
22181;BME280;11256;50.830;12.834;2022-09-23T04:52:10;97924.41;;;6.64;59.83
22181;BME280;11256;50.830;12.834;2022-09-23T04:57:11;97929.31;;;6.67;59.92
22181;BME280;11256;50.830;12.834;2022-09-23T05:02:11;97916.16;;;6.49;60.01
22181;BME280;11256;50.830;12.834;2022-09-23T05:07:12;97927.47;;;6.51;59.95
22181;BME280;11256;50.830;12.834;2022-09-23T05:12:12;97920.63;;;6.43;60.04
22181;BME280;11256;50.830;12.834;2022-09-23T05:17:13;97925.72;;;6.40;60.39
22181;BME280;11256;50.830;12.834;2022-09-23T05:22:14;97923.31;;;6.43;60.53
22181;BME280;11256;50.830;12.834;2022-09-23T05:27:14;97918.63;;;6.34;60.89
22181;BME280;11256;50.830;12.834;2022-09-23T05:32:15;97909.66;;;6.28;60.98
22181;BME280;11256;50.830;12.834;2022-09-23T05:37:16;97918.63;;;6.34;61.22
22181;BME280;11256;50.830;12.834;2022-09-23T05:42:17;97939.56;;;6.48;61.86
22181;BME280;11256;50.830;12.834;2022-09-23T05:47:17;97937.50;;;6.55;61.46
22181;BME280;11256;50.830;12.834;2022-09-23T05:52:18;97925.41;;;6.58;62.25
22181;BME280;11256;50.830;12.834;2022-09-23T05:57:18;97917.72;;;6.66;62.91
22181;BME280;11256;50.830;12.834;2022-09-23T06:02:20;97921.31;;;6.72;63.44
22181;BME280;11256;50.830;12.834;2022-09-23T06:07:21;97935.69;;;6.82;62.75
22181;BME280;11256;50.830;12.834;2022-09-23T06:12:22;97926.31;;;6.85;63.03
22181;BME280;11256;50.830;12.834;2022-09-23T06:17:23;97921.28;;;6.93;63.33
22181;BME280;11256;50.830;12.834;2022-09-23T06:22:24;97930.50;;;7.19;63.76
22181;BME280;11256;50.830;12.834;2022-09-23T06:27:24;97934.63;;;7.53;63.34
22181;BME280;11256;50.830;12.834;2022-09-23T06:32:24;97926.34;;;7.91;64.24
22181;BME280;11256;50.830;12.834;2022-09-23T06:37:25;97936.16;;;8.85;66.75
22181;BME280;11256;50.830;12.834;2022-09-23T06:42:28;97919.69;;;10.13;67.95
22181;BME280;11256;50.830;12.834;2022-09-23T06:47:28;97926.44;;;11.77;65.60
22181;BME280;11256;50.830;12.834;2022-09-23T06:52:28;97923.63;;;13.30;64.92
22181;BME280;11256;50.830;12.834;2022-09-23T06:57:31;97932.16;;;14.80;61.35
22181;BME280;11256;50.830;12.834;2022-09-23T07:02:32;97940.56;;;16.00;59.13
22181;BME280;11256;50.830;12.834;2022-09-23T07:07:32;97945.13;;;17.31;58.98
22181;BME280;11256;50.830;12.834;2022-09-23T07:12:35;97939.47;;;18.26;56.17
22181;BME280;11256;50.830;12.834;2022-09-23T07:17:39;97930.44;;;19.23;54.25
22181;BME280;11256;50.830;12.834;2022-09-23T07:22:40;97941.09;;;20.11;52.80
22181;BME280;11256;50.830;12.834;2022-09-23T07:27:40;97935.88;;;21.04;51.56
22181;BME280;11256;50.830;12.834;2022-09-23T07:32:40;97946.44;;;22.10;50.06
22181;BME280;11256;50.830;12.834;2022-09-23T07:37:41;97938.97;;;23.05;48.58
22181;BME280;11256;50.830;12.834;2022-09-23T07:42:41;97938.78;;;23.91;46.08
22181;BME280;11256;50.830;12.834;2022-09-23T07:47:41;97947.16;;;24.29;44.96
22181;BME280;11256;50.830;12.834;2022-09-23T07:52:42;97939.06;;;24.74;43.55
22181;BME280;11256;50.830;12.834;2022-09-23T07:57:42;97941.19;;;25.67;41.92
22181;BME280;11256;50.830;12.834;2022-09-23T08:02:42;97939.84;;;26.06;40.98
22181;BME280;11256;50.830;12.834;2022-09-23T08:07:43;97944.19;;;26.33;40.11
22181;BME280;11256;50.830;12.834;2022-09-23T08:12:43;97943.25;;;26.81;39.68
22181;BME280;11256;50.830;12.834;2022-09-23T08:17:44;97934.22;;;27.24;38.60
22181;BME280;11256;50.830;12.834;2022-09-23T08:22:49;97926.78;;;27.82;37.30
22181;BME280;11256;50.830;12.834;2022-09-23T08:27:49;97937.56;;;28.48;36.97
22181;BME280;11256;50.830;12.834;2022-09-23T08:32:51;97924.19;;;28.92;36.07
22181;BME280;11256;50.830;12.834;2022-09-23T08:37:51;97929.09;;;28.30;35.68
22181;BME280;11256;50.830;12.834;2022-09-23T08:42:52;97916.28;;;29.01;35.72
22181;BME280;11256;50.830;12.834;2022-09-23T08:47:59;97905.97;;;29.47;34.68
22181;BME280;11256;50.830;12.834;2022-09-23T08:53:07;97914.38;;;29.96;33.69
22181;BME280;11256;50.830;12.834;2022-09-23T09:03:37;97907.56;;;29.44;33.76
22181;BME280;11256;50.830;12.834;2022-09-23T09:08:40;97889.19;;;29.89;33.04
22181;BME280;11256;50.830;12.834;2022-09-23T09:13:58;97904.22;;;30.61;33.00
22181;BME280;11256;50.830;12.834;2022-09-23T09:19:01;97903.19;;;29.85;31.90
22181;BME280;11256;50.830;12.834;2022-09-23T09:24:06;97899.44;;;30.62;31.51
22181;BME280;11256;50.830;12.834;2022-09-23T09:29:24;97911.00;;;30.71;31.67
22181;BME280;11256;50.830;12.834;2022-09-23T09:34:35;97904.19;;;30.79;31.20
22181;BME280;11256;50.830;12.834;2022-09-23T09:39:40;97898.75;;;30.16;31.15
22181;BME280;11256;50.830;12.834;2022-09-23T09:44:48;97892.34;;;30.26;30.75
22181;BME280;11256;50.830;12.834;2022-09-23T09:49:55;97886.81;;;29.63;31.22
22181;BME280;11256;50.830;12.834;2022-09-23T09:55:35;97873.94;;;28.92;31.96
22181;BME280;11256;50.830;12.834;2022-09-23T10:00:41;97869.63;;;29.05;31.28
22181;BME280;11256;50.830;12.834;2022-09-23T10:10:52;97854.22;;;27.68;32.80
22181;BME280;11256;50.830;12.834;2022-09-23T10:16:00;97845.88;;;27.21;33.28
22181;BME280;11256;50.830;12.834;2022-09-23T10:21:11;97832.31;;;26.76;32.66
22181;BME280;11256;50.830;12.834;2022-09-23T10:26:14;97848.66;;;26.15;34.58
22181;BME280;11256;50.830;12.834;2022-09-23T10:31:26;97842.00;;;25.93;34.25
22181;BME280;11256;50.830;12.834;2022-09-23T10:36:29;97839.16;;;25.64;35.20
22181;BME280;11256;50.830;12.834;2022-09-23T10:41:36;97833.28;;;25.69;35.14
22181;BME280;11256;50.830;12.834;2022-09-23T10:47:13;97842.91;;;25.49;36.18
22181;BME280;11256;50.830;12.834;2022-09-23T11:08:22;97812.44;;;24.81;37.44
22181;BME280;11256;50.830;12.834;2022-09-23T11:13:44;97806.25;;;24.91;37.84
22181;BME280;11256;50.830;12.834;2022-09-23T11:24:20;97791.94;;;25.12;36.69
22181;BME280;11256;50.830;12.834;2022-09-23T11:30:32;97785.13;;;25.06;37.47
22181;BME280;11256;50.830;12.834;2022-09-23T11:35:25;97783.50;;;25.05;38.63
22181;BME280;11256;50.830;12.834;2022-09-23T11:40:34;97782.81;;;25.11;39.04
22181;BME280;11256;50.830;12.834;2022-09-23T11:45:39;97778.06;;;25.12;38.83
22181;BME280;11256;50.830;12.834;2022-09-23T11:55:52;97754.91;;;25.53;36.36
22181;BME280;11256;50.830;12.834;2022-09-23T12:01:10;97755.16;;;26.33;35.34
22181;BME280;11256;50.830;12.834;2022-09-23T12:06:16;97744.59;;;26.12;36.63
22181;BME280;11256;50.830;12.834;2022-09-23T12:11:39;97750.88;;;26.06;37.43
22181;BME280;11256;50.830;12.834;2022-09-23T12:17:02;97743.25;;;26.72;35.58
22181;BME280;11256;50.830;12.834;2022-09-23T12:22:39;97736.47;;;26.70;36.07
22181;BME280;11256;50.830;12.834;2022-09-23T12:27:48;97724.50;;;26.62;36.07
22181;BME280;11256;50.830;12.834;2022-09-23T12:32:49;97729.31;;;26.69;35.63
22181;BME280;11256;50.830;12.834;2022-09-23T12:37:50;97734.75;;;26.55;35.39
22181;BME280;11256;50.830;12.834;2022-09-23T12:42:51;97720.34;;;26.09;31.88
22181;BME280;11256;50.830;12.834;2022-09-23T12:47:52;97722.88;;;26.25;35.62
22181;BME280;11256;50.830;12.834;2022-09-23T12:52:52;97717.53;;;26.46;36.68
22181;BME280;11256;50.830;12.834;2022-09-23T12:57:52;97704.16;;;26.55;38.07
22181;BME280;11256;50.830;12.834;2022-09-23T13:03:02;97706.22;;;26.65;37.03
22181;BME280;11256;50.830;12.834;2022-09-23T13:08:23;97705.41;;;26.61;35.43
22181;BME280;11256;50.830;12.834;2022-09-23T13:13:31;97692.00;;;26.73;36.32
22181;BME280;11256;50.830;12.834;2022-09-23T13:24:15;97684.06;;;26.79;39.50
22181;BME280;11256;50.830;12.834;2022-09-23T13:29:30;97680.03;;;27.20;37.93
22181;BME280;11256;50.830;12.834;2022-09-23T13:34:35;97668.53;;;27.25;36.43
22181;BME280;11256;50.830;12.834;2022-09-23T13:39:37;97657.44;;;27.32;37.19
22181;BME280;11256;50.830;12.834;2022-09-23T13:44:39;97671.44;;;27.46;37.73
22181;BME280;11256;50.830;12.834;2022-09-23T13:49:39;97638.38;;;27.37;36.85
22181;BME280;11256;50.830;12.834;2022-09-23T13:54:49;97645.53;;;27.35;37.26
22181;BME280;11256;50.830;12.834;2022-09-23T13:59:50;97641.81;;;27.17;35.99
22181;BME280;11256;50.830;12.834;2022-09-23T14:04:53;97632.00;;;27.37;36.42
22181;BME280;11256;50.830;12.834;2022-09-23T14:09:55;97619.63;;;27.27;36.48
22181;BME280;11256;50.830;12.834;2022-09-23T14:14:55;97621.59;;;27.27;36.99
22181;BME280;11256;50.830;12.834;2022-09-23T14:19:56;97628.78;;;27.31;38.79
22181;BME280;11256;50.830;12.834;2022-09-23T14:24:57;97613.72;;;27.43;36.62
22181;BME280;11256;50.830;12.834;2022-09-23T14:30:01;97614.50;;;27.40;37.21
22181;BME280;11256;50.830;12.834;2022-09-23T14:40:17;97607.31;;;27.39;39.75
22181;BME280;11256;50.830;12.834;2022-09-23T14:45:23;97600.53;;;27.29;40.03
22181;BME280;11256;50.830;12.834;2022-09-23T14:50:28;97608.06;;;27.25;39.44
22181;BME280;11256;50.830;12.834;2022-09-23T14:55:48;97600.53;;;27.26;39.87
22181;BME280;11256;50.830;12.834;2022-09-23T15:00:55;97599.41;;;27.41;39.36
22181;BME280;11256;50.830;12.834;2022-09-23T15:05:59;97596.56;;;27.30;38.65
22181;BME280;11256;50.830;12.834;2022-09-23T15:11:03;97589.69;;;27.14;38.73
22181;BME280;11256;50.830;12.834;2022-09-23T15:16:04;97583.69;;;27.05;39.26
22181;BME280;11256;50.830;12.834;2022-09-23T15:21:11;97572.88;;;26.89;39.40
22181;BME280;11256;50.830;12.834;2022-09-23T15:31:18;97573.47;;;26.58;39.36
22181;BME280;11256;50.830;12.834;2022-09-23T15:36:23;97570.13;;;26.39;39.48
22181;BME280;11256;50.830;12.834;2022-09-23T15:41:27;97568.00;;;26.22;39.43
22181;BME280;11256;50.830;12.834;2022-09-23T15:46:28;97563.50;;;26.03;39.59
22181;BME280;11256;50.830;12.834;2022-09-23T15:51:30;97563.28;;;25.86;39.62
22181;BME280;11256;50.830;12.834;2022-09-23T15:56:31;97547.19;;;25.62;39.73
22181;BME280;11256;50.830;12.834;2022-09-23T16:01:33;97546.16;;;25.40;39.63
22181;BME280;11256;50.830;12.834;2022-09-23T16:06:35;97548.28;;;25.21;39.56
22181;BME280;11256;50.830;12.834;2022-09-23T16:11:35;97540.88;;;24.99;39.68
22181;BME280;11256;50.830;12.834;2022-09-23T16:16:36;97554.47;;;24.78;39.66
22181;BME280;11256;50.830;12.834;2022-09-23T16:21:36;97550.66;;;24.60;39.86
22181;BME280;11256;50.830;12.834;2022-09-23T16:26:39;97550.63;;;24.34;39.81
22181;BME280;11256;50.830;12.834;2022-09-23T16:31:39;97549.88;;;24.11;40.10
22181;BME280;11256;50.830;12.834;2022-09-23T16:36:42;97555.06;;;23.90;40.43
22181;BME280;11256;50.830;12.834;2022-09-23T16:41:42;97540.69;;;23.62;40.57
22181;BME280;11256;50.830;12.834;2022-09-23T16:46:43;97537.09;;;23.39;40.77
22181;BME280;11256;50.830;12.834;2022-09-23T16:51:43;97536.97;;;23.13;40.97
22181;BME280;11256;50.830;12.834;2022-09-23T16:56:43;97542.50;;;22.94;41.23
22181;BME280;11256;50.830;12.834;2022-09-23T17:01:44;97536.81;;;22.68;41.51
22181;BME280;11256;50.830;12.834;2022-09-23T17:07:03;97529.13;;;22.42;41.76
22181;BME280;11256;50.830;12.834;2022-09-23T17:12:12;97529.25;;;22.15;41.84
22181;BME280;11256;50.830;12.834;2022-09-23T17:17:16;97533.56;;;21.97;42.13
22181;BME280;11256;50.830;12.834;2022-09-23T17:22:16;97520.22;;;21.68;42.29
22181;BME280;11256;50.830;12.834;2022-09-23T17:27:16;97527.66;;;21.52;42.45
22181;BME280;11256;50.830;12.834;2022-09-23T17:32:17;97529.88;;;21.31;42.74
22181;BME280;11256;50.830;12.834;2022-09-23T17:37:17;97528.03;;;21.07;42.75
22181;BME280;11256;50.830;12.834;2022-09-23T17:42:18;97527.41;;;20.86;43.22
22181;BME280;11256;50.830;12.834;2022-09-23T17:47:19;97530.34;;;20.66;43.31
22181;BME280;11256;50.830;12.834;2022-09-23T17:52:19;97525.34;;;20.44;43.34
22181;BME280;11256;50.830;12.834;2022-09-23T17:57:20;97524.00;;;20.26;43.64
22181;BME280;11256;50.830;12.834;2022-09-23T18:02:20;97539.16;;;20.08;43.76
22181;BME280;11256;50.830;12.834;2022-09-23T18:07:21;97536.63;;;19.91;44.01
22181;BME280;11256;50.830;12.834;2022-09-23T18:12:21;97532.50;;;19.73;44.26
22181;BME280;11256;50.830;12.834;2022-09-23T18:17:22;97527.88;;;19.53;44.23
22181;BME280;11256;50.830;12.834;2022-09-23T18:22:22;97530.13;;;19.39;44.50
22181;BME280;11256;50.830;12.834;2022-09-23T18:27:22;97530.34;;;19.22;44.73
22181;BME280;11256;50.830;12.834;2022-09-23T18:32:23;97539.66;;;19.09;44.89
22181;BME280;11256;50.830;12.834;2022-09-23T18:37:23;97495.94;;;18.71;44.88
22181;BME280;11256;50.830;12.834;2022-09-23T18:42:23;97530.75;;;18.79;45.21
22181;BME280;11256;50.830;12.834;2022-09-23T18:47:27;97529.41;;;18.65;45.21
22181;BME280;11256;50.830;12.834;2022-09-23T18:52:46;97522.47;;;18.47;45.50
22181;BME280;11256;50.830;12.834;2022-09-23T18:57:47;97525.81;;;18.32;45.71
22181;BME280;11256;50.830;12.834;2022-09-23T19:02:47;97537.13;;;18.22;45.73
22181;BME280;11256;50.830;12.834;2022-09-23T19:07:47;97530.16;;;18.04;45.73
22181;BME280;11256;50.830;12.834;2022-09-23T19:12:48;97538.94;;;17.89;45.90
22181;BME280;11256;50.830;12.834;2022-09-23T19:17:48;97535.44;;;17.80;46.08
22181;BME280;11256;50.830;12.834;2022-09-23T19:22:48;97540.69;;;17.64;46.21
22181;BME280;11256;50.830;12.834;2022-09-23T19:27:49;97542.31;;;17.57;46.25
22181;BME280;11256;50.830;12.834;2022-09-23T19:32:49;97535.31;;;17.39;46.26
22181;BME280;11256;50.830;12.834;2022-09-23T19:43:10;97537.44;;;17.16;46.70
22181;BME280;11256;50.830;12.834;2022-09-23T19:48:11;97549.06;;;17.05;47.00
22181;BME280;11256;50.830;12.834;2022-09-23T19:53:11;97540.69;;;16.93;47.08
22181;BME280;11256;50.830;12.834;2022-09-23T19:58:12;97533.94;;;16.82;47.33
22181;BME280;11256;50.830;12.834;2022-09-23T20:03:13;97543.13;;;16.77;47.54
22181;BME280;11256;50.830;12.834;2022-09-23T20:08:13;97536.84;;;16.68;47.61
22181;BME280;11256;50.830;12.834;2022-09-23T20:13:14;97532.53;;;16.59;47.84
22181;BME280;11256;50.830;12.834;2022-09-23T20:18:16;97524.97;;;16.56;47.69
22181;BME280;11256;50.830;12.834;2022-09-23T20:23:16;97525.44;;;16.41;48.00
22181;BME280;11256;50.830;12.834;2022-09-23T20:28:16;97518.16;;;16.28;47.93
22181;BME280;11256;50.830;12.834;2022-09-23T20:33:17;97517.84;;;16.21;48.29
22181;BME280;11256;50.830;12.834;2022-09-23T20:38:17;97503.84;;;16.14;48.48
22181;BME280;11256;50.830;12.834;2022-09-23T20:43:17;97509.78;;;16.07;48.51
22181;BME280;11256;50.830;12.834;2022-09-23T20:48:22;97498.84;;;15.99;48.75
22181;BME280;11256;50.830;12.834;2022-09-23T20:53:23;97506.19;;;15.90;48.91
22181;BME280;11256;50.830;12.834;2022-09-23T20:58:28;97502.16;;;15.79;48.97
22181;BME280;11256;50.830;12.834;2022-09-23T21:03:29;97509.41;;;15.75;49.10
22181;BME280;11256;50.830;12.834;2022-09-23T21:08:31;97500.84;;;15.68;49.29
22181;BME280;11256;50.830;12.834;2022-09-23T21:13:33;97506.63;;;15.58;49.20
22181;BME280;11256;50.830;12.834;2022-09-23T21:18:33;97498.56;;;15.53;49.60
22181;BME280;11256;50.830;12.834;2022-09-23T21:23:37;97494.38;;;15.47;49.94
22181;BME280;11256;50.830;12.834;2022-09-23T21:28:42;97504.94;;;15.40;49.75
22181;BME280;11256;50.830;12.834;2022-09-23T21:33:43;97487.19;;;15.29;49.92
22181;BME280;11256;50.830;12.834;2022-09-23T21:38:43;97498.75;;;15.26;49.91
22181;BME280;11256;50.830;12.834;2022-09-23T21:43:44;97505.47;;;15.20;50.10
22181;BME280;11256;50.830;12.834;2022-09-23T21:48:45;97493.41;;;15.12;50.17
22181;BME280;11256;50.830;12.834;2022-09-23T21:53:48;97497.69;;;15.05;50.45
22181;BME280;11256;50.830;12.834;2022-09-23T21:58:49;97503.59;;;14.98;50.59
22181;BME280;11256;50.830;12.834;2022-09-23T22:04:00;97495.06;;;14.91;50.61
22181;BME280;11256;50.830;12.834;2022-09-23T22:09:06;97491.97;;;14.84;50.65
22181;BME280;11256;50.830;12.834;2022-09-23T22:14:10;97490.28;;;14.75;50.93
22181;BME280;11256;50.830;12.834;2022-09-23T22:19:12;97489.81;;;14.73;51.06
22181;BME280;11256;50.830;12.834;2022-09-23T22:24:13;97482.88;;;14.67;51.12
22181;BME280;11256;50.830;12.834;2022-09-23T22:29:14;97479.78;;;14.60;51.43
22181;BME280;11256;50.830;12.834;2022-09-23T22:34:33;97478.41;;;14.49;51.45
22181;BME280;11256;50.830;12.834;2022-09-23T22:39:33;97469.38;;;14.40;51.58
22181;BME280;11256;50.830;12.834;2022-09-23T22:44:34;97473.69;;;14.41;51.66
22181;BME280;11256;50.830;12.834;2022-09-23T22:49:35;97469.47;;;14.35;51.91
22181;BME280;11256;50.830;12.834;2022-09-23T22:54:35;97469.41;;;14.26;52.04
22181;BME280;11256;50.830;12.834;2022-09-23T22:59:36;97473.66;;;14.19;52.20
22181;BME280;11256;50.830;12.834;2022-09-23T23:04:36;97467.84;;;14.12;52.24
22181;BME280;11256;50.830;12.834;2022-09-23T23:09:37;97465.81;;;14.04;52.28
22181;BME280;11256;50.830;12.834;2022-09-23T23:14:37;97453.94;;;14.00;52.76
22181;BME280;11256;50.830;12.834;2022-09-23T23:19:37;97458.41;;;13.96;52.76
22181;BME280;11256;50.830;12.834;2022-09-23T23:24:38;97453.56;;;13.93;52.85
22181;BME280;11256;50.830;12.834;2022-09-23T23:29:38;97454.66;;;13.92;52.94
22181;BME280;11256;50.830;12.834;2022-09-23T23:34:39;97440.66;;;13.85;53.15
22181;BME280;11256;50.830;12.834;2022-09-23T23:39:43;97449.56;;;13.77;53.10
22181;BME280;11256;50.830;12.834;2022-09-23T23:44:44;97429.72;;;13.63;53.26
22181;BME280;11256;50.830;12.834;2022-09-23T23:49:44;97434.66;;;13.61;53.46
22181;BME280;11256;50.830;12.834;2022-09-23T23:54:44;97432.69;;;13.53;53.54
22181;BME280;11256;50.830;12.834;2022-09-23T23:59:45;97427.16;;;13.44;53.67
